createdAt,value
2016-12-14T00:00:12.177Z,54.80
2016-12-14T00:01:12.119Z,53.90
2016-12-14T00:02:12.336Z,55.00
2016-12-14T00:03:11.856Z,54.70
2016-12-14T00:04:12.140Z,54.70
2016-12-14T00:05:13.294Z,54.80
2016-12-14T00:06:14.189Z,54.80
2016-12-14T00:07:12.911Z,54.70
2016-12-14T00:08:12.118Z,54.70
2016-12-14T00:09:12.894Z,54.80
2016-12-14T00:10:13.734Z,54.70
2016-12-14T00:11:12.035Z,54.70
2016-12-14T00:12:13.153Z,54.80
2016-12-14T00:13:13.990Z,54.80
2016-12-14T00:14:12.168Z,54.70
2016-12-14T00:15:12.854Z,54.70
2016-12-14T00:16:12.684Z,54.80
2016-12-14T00:17:12.119Z,54.80
2016-12-14T00:18:12.764Z,54.80
2016-12-14T00:19:12.199Z,54.70
2016-12-14T00:20:12.714Z,54.80
2016-12-14T00:21:13.750Z,54.80
2016-12-14T00:22:12.279Z,54.80
2016-12-14T00:23:10.815Z,is
2016-12-14T00:24:12.866Z,54.80
2016-12-14T00:25:12.153Z,54.70
2016-12-14T00:26:13.720Z,54.70
2016-12-14T00:27:12.133Z,54.70
2016-12-14T00:28:11.227Z,is
2016-12-14T00:29:11.898Z,54.70
2016-12-14T00:30:12.545Z,54.80
2016-12-14T00:31:13.389Z,54.80
2016-12-14T00:32:09.738Z,is
2016-12-14T00:33:13.069Z,54.80
2016-12-14T00:34:13.973Z,55.10
2016-12-14T00:35:12.189Z,54.80
2016-12-14T00:36:10.217Z,is
2016-12-14T00:37:12.445Z,54.80
2016-12-14T00:38:13.502Z,54.80
2016-12-14T00:39:11.609Z,54.70
2016-12-14T00:40:12.799Z,54.80
2016-12-14T00:41:12.940Z,54.70
2016-12-14T00:42:12.231Z,54.70
2016-12-14T00:43:10.882Z,is
2016-12-14T00:44:12.987Z,54.80
2016-12-14T00:45:12.066Z,54.70
2016-12-14T00:46:12.193Z,54.70
2016-12-14T00:47:12.870Z,54.70
2016-12-14T00:48:12.851Z,54.80
2016-12-14T00:49:13.878Z,54.90
2016-12-14T00:50:12.084Z,54.70
2016-12-14T00:51:12.627Z,54.80
2016-12-14T00:52:12.328Z,54.80
2016-12-14T00:53:12.815Z,54.70
2016-12-14T00:54:12.121Z,54.70
2016-12-14T00:55:14.048Z,54.80
2016-12-14T00:56:12.880Z,54.80
2016-12-14T00:57:09.864Z,is
2016-12-14T00:58:12.296Z,54.70
2016-12-14T00:59:12.460Z,54.70
2016-12-14T01:00:14.270Z,54.80
2016-12-14T01:01:13.711Z,54.70
2016-12-14T01:02:12.955Z,54.80
2016-12-14T01:03:13.606Z,54.70
2016-12-14T01:04:13.761Z,54.70
2016-12-14T01:05:09.199Z,is
2016-12-14T01:06:12.471Z,54.80
2016-12-14T01:07:15.168Z,54.90
2016-12-14T01:08:12.130Z,54.70
2016-12-14T01:09:14.990Z,54.60
2016-12-14T01:10:14.500Z,54.80
2016-12-14T01:11:16.183Z,55.50
2016-12-14T01:12:13.879Z,54.60
2016-12-14T01:13:09.019Z,is
2016-12-14T01:14:14.802Z,54.80
2016-12-14T01:15:13.792Z,54.70
2016-12-14T01:16:13.021Z,54.70
2016-12-14T01:17:12.109Z,54.70
2016-12-14T01:18:14.976Z,54.70
2016-12-14T01:19:12.159Z,54.80
2016-12-14T01:20:13.830Z,54.70
2016-12-14T01:21:13.360Z,54.80
2016-12-14T01:22:12.526Z,54.70
2016-12-14T01:23:13.871Z,54.80
2016-12-14T01:24:15.868Z,54.80
2016-12-14T01:25:12.847Z,54.80
2016-12-14T01:26:13.347Z,54.80
2016-12-14T01:27:13.345Z,54.80
2016-12-14T01:28:12.366Z,54.70
2016-12-14T01:29:13.288Z,54.80
2016-12-14T01:30:11.970Z,is
2016-12-14T01:31:12.212Z,54.80
2016-12-14T01:32:12.289Z,54.70
2016-12-14T01:33:12.877Z,54.90
2016-12-14T01:34:10.756Z,is
2016-12-14T01:35:13.173Z,54.80
2016-12-14T01:36:11.333Z,is
2016-12-14T01:37:12.213Z,54.70
2016-12-14T01:38:12.735Z,54.80
2016-12-14T01:39:12.195Z,54.70
2016-12-14T01:40:12.709Z,54.90
2016-12-14T01:41:12.564Z,54.90
2016-12-14T01:42:12.524Z,54.90
2016-12-14T01:43:09.633Z,is
2016-12-14T01:44:12.235Z,54.90
2016-12-14T01:45:12.462Z,54.10
2016-12-14T01:46:13.002Z,55.00
2016-12-14T01:47:13.727Z,55.20
2016-12-14T01:48:12.134Z,55.10
2016-12-14T01:49:09.509Z,is
2016-12-14T01:50:12.029Z,55.20
2016-12-14T01:51:14.463Z,55.30
2016-12-14T01:52:11.757Z,55.30
2016-12-14T01:53:12.004Z,55.30
2016-12-14T01:54:12.306Z,55.10
2016-12-14T01:55:13.108Z,55.30
2016-12-14T01:56:16.077Z,55.30
2016-12-14T01:57:12.628Z,55.30
2016-12-14T01:58:10.497Z,is
2016-12-14T01:59:12.630Z,55.50
2016-12-14T02:00:12.106Z,55.30
2016-12-14T02:01:10.246Z,is
2016-12-14T02:02:12.309Z,55.40
2016-12-14T02:03:13.085Z,55.30
2016-12-14T02:04:12.346Z,55.30
2016-12-14T02:05:13.177Z,55.40
2016-12-14T02:06:12.517Z,55.30
2016-12-14T02:07:12.534Z,55.50
2016-12-14T02:08:11.674Z,55.40
2016-12-14T02:09:12.074Z,55.40
2016-12-14T02:10:13.098Z,55.40
2016-12-14T02:11:14.436Z,55.50
2016-12-14T02:12:12.477Z,55.50
2016-12-14T02:13:09.114Z,is
2016-12-14T02:14:13.211Z,55.50
2016-12-14T02:15:11.164Z,is
2016-12-14T02:16:12.909Z,55.30
2016-12-14T02:17:13.080Z,55.50
2016-12-14T02:18:12.194Z,55.40
2016-12-14T02:19:13.799Z,55.50
2016-12-14T02:20:12.538Z,55.40
2016-12-14T02:21:12.582Z,55.50
2016-12-14T02:22:12.521Z,55.40
2016-12-14T02:23:11.802Z,55.50
2016-12-14T02:24:14.026Z,55.50
2016-12-14T02:25:13.037Z,55.60
2016-12-14T02:26:14.702Z,55.60
2016-12-14T02:27:12.008Z,55.80
2016-12-14T02:28:13.971Z,56.00
2016-12-14T02:29:13.448Z,56.00
2016-12-14T02:30:12.896Z,55.80
2016-12-14T02:31:12.151Z,56.00
2016-12-14T02:32:17.895Z,55.90
2016-12-14T02:33:12.258Z,55.90
2016-12-14T02:34:13.227Z,56.00
2016-12-14T02:35:13.031Z,56.00
2016-12-14T02:36:12.860Z,55.80
2016-12-14T02:37:12.750Z,55.80
2016-12-14T02:38:12.732Z,55.80
2016-12-14T02:39:12.185Z,55.80
2016-12-14T02:40:13.255Z,55.70
2016-12-14T02:41:14.819Z,55.90
2016-12-14T02:42:12.452Z,55.80
2016-12-14T02:43:12.499Z,55.80
2016-12-14T02:44:11.915Z,55.80
2016-12-14T02:45:12.847Z,55.90
2016-12-14T02:46:12.528Z,55.70
2016-12-14T02:47:13.323Z,55.70
2016-12-14T02:48:12.417Z,55.60
2016-12-14T02:49:12.707Z,55.70
2016-12-14T02:50:12.406Z,55.70
2016-12-14T02:51:13.611Z,55.60
2016-12-14T02:52:12.287Z,55.70
2016-12-14T02:53:13.066Z,55.60
2016-12-14T02:54:13.127Z,55.70
2016-12-14T02:55:12.286Z,56.00
2016-12-14T02:56:14.519Z,55.60
2016-12-14T02:57:12.683Z,55.60
2016-12-14T02:58:12.435Z,55.50
2016-12-14T02:59:11.831Z,55.60
2016-12-14T03:00:12.587Z,55.60
2016-12-14T03:01:15.063Z,55.70
2016-12-14T03:02:12.956Z,55.60
2016-12-14T03:03:12.237Z,55.60
2016-12-14T03:04:11.087Z,is
2016-12-14T03:05:12.316Z,55.60
2016-12-14T03:06:13.037Z,55.70
2016-12-14T03:07:13.559Z,55.30
2016-12-14T03:08:10.294Z,is
2016-12-14T03:09:12.668Z,55.60
2016-12-14T03:10:13.280Z,55.70
2016-12-14T03:11:13.279Z,55.60
2016-12-14T03:12:13.918Z,55.70
2016-12-14T03:13:10.554Z,is
2016-12-14T03:14:12.074Z,55.70
2016-12-14T03:15:13.046Z,55.50
2016-12-14T03:16:14.055Z,55.60
2016-12-14T03:17:14.406Z,55.60
2016-12-14T03:18:11.930Z,55.60
2016-12-14T03:19:12.936Z,55.60
2016-12-14T03:20:12.604Z,55.60
2016-12-14T03:21:13.022Z,55.60
2016-12-14T03:22:12.243Z,55.50
2016-12-14T03:23:12.795Z,55.60
2016-12-14T03:24:12.067Z,55.60
2016-12-14T03:25:13.007Z,55.60
2016-12-14T03:26:13.595Z,55.60
2016-12-14T03:27:11.799Z,55.60
2016-12-14T03:28:13.272Z,55.70
2016-12-14T03:29:10.324Z,is
2016-12-14T03:30:12.874Z,55.50
2016-12-14T03:31:12.455Z,55.50
2016-12-14T03:32:09.835Z,is
2016-12-14T03:33:12.902Z,55.40
2016-12-14T03:34:09.351Z,is
2016-12-14T03:35:12.625Z,55.50
2016-12-14T03:36:12.753Z,55.50
2016-12-14T03:37:12.661Z,55.50
2016-12-14T03:38:12.354Z,55.50
2016-12-14T03:39:12.930Z,55.40
2016-12-14T03:40:13.173Z,55.40
2016-12-14T03:41:11.896Z,is
2016-12-14T03:42:12.836Z,55.60
2016-12-14T03:43:09.117Z,is
2016-12-14T03:44:12.773Z,55.50
2016-12-14T03:45:12.462Z,55.50
2016-12-14T03:46:12.357Z,55.50
2016-12-14T03:47:12.583Z,54.70
2016-12-14T03:48:12.376Z,55.50
2016-12-14T03:49:12.495Z,55.50
2016-12-14T03:50:13.232Z,55.50
2016-12-14T03:51:12.305Z,55.60
2016-12-14T03:52:12.603Z,55.60
2016-12-14T03:53:14.524Z,55.60
2016-12-14T03:54:12.099Z,55.50
2016-12-14T03:55:12.716Z,55.50
2016-12-14T03:56:12.940Z,55.50
2016-12-14T03:57:12.398Z,55.50
2016-12-14T03:58:11.983Z,55.50
2016-12-14T03:59:14.492Z,55.60
2016-12-14T04:00:12.798Z,55.60
2016-12-14T04:01:12.459Z,55.50
2016-12-14T04:02:13.163Z,55.50
2016-12-14T04:03:10.964Z,is
2016-12-14T04:04:12.944Z,55.60
2016-12-14T04:05:12.619Z,56.30
2016-12-14T04:06:11.975Z,55.60
2016-12-14T04:07:13.097Z,55.60
2016-12-14T04:08:12.436Z,55.50
2016-12-14T04:09:10.613Z,is
2016-12-14T04:10:13.151Z,55.60
2016-12-14T04:11:14.152Z,55.10
2016-12-14T04:12:12.507Z,55.70
2016-12-14T04:13:12.698Z,55.80
2016-12-14T04:14:12.145Z,55.80
2016-12-14T04:15:12.804Z,55.70
2016-12-14T04:16:09.267Z,is
2016-12-14T04:17:12.385Z,55.60
2016-12-14T04:18:13.478Z,55.70
2016-12-14T04:19:11.964Z,55.60
2016-12-14T04:20:12.572Z,55.70
2016-12-14T04:21:13.647Z,55.70
2016-12-14T04:22:09.087Z,is
2016-12-14T04:23:12.835Z,55.70
2016-12-14T04:24:12.507Z,55.60
2016-12-14T04:25:12.350Z,55.60
2016-12-14T04:26:13.937Z,54.80
2016-12-14T04:27:12.835Z,55.60
2016-12-14T04:28:12.914Z,55.60
2016-12-14T04:29:09.579Z,is
2016-12-14T04:30:10.617Z,is
2016-12-14T04:31:12.747Z,55.70
2016-12-14T04:32:13.285Z,55.70
2016-12-14T04:33:10.858Z,is
2016-12-14T04:34:12.643Z,55.70
2016-12-14T04:35:12.226Z,55.60
2016-12-14T04:36:13.799Z,55.70
2016-12-14T04:37:11.908Z,55.60
2016-12-14T04:38:12.145Z,55.60
2016-12-14T04:39:12.285Z,55.60
2016-12-14T04:40:13.835Z,55.80
2016-12-14T04:41:13.445Z,55.60
2016-12-14T04:42:12.176Z,55.70
2016-12-14T04:43:12.414Z,55.30
2016-12-14T04:44:09.684Z,is
2016-12-14T04:45:12.295Z,55.60
2016-12-14T04:46:10.759Z,is
2016-12-14T04:47:14.052Z,55.60
2016-12-14T04:48:13.275Z,55.70
2016-12-14T04:49:12.363Z,55.60
2016-12-14T04:50:12.563Z,55.60
2016-12-14T04:51:13.264Z,55.60
2016-12-14T04:52:12.994Z,55.60
2016-12-14T04:53:12.200Z,55.70
2016-12-14T04:54:13.327Z,55.60
2016-12-14T04:55:13.961Z,55.70
2016-12-14T04:56:13.325Z,55.60
2016-12-14T04:57:10.701Z,is
2016-12-14T04:58:12.803Z,55.60
2016-12-14T04:59:13.694Z,55.60
2016-12-14T05:00:13.610Z,55.60
2016-12-14T05:01:12.688Z,55.70
2016-12-14T05:02:12.478Z,55.60
2016-12-14T05:03:10.719Z,is
2016-12-14T05:04:13.176Z,55.70
2016-12-14T05:05:12.963Z,55.70
2016-12-14T05:06:10.764Z,is
2016-12-14T05:07:13.395Z,55.60
2016-12-14T05:08:10.910Z,is
2016-12-14T05:09:11.757Z,55.60
2016-12-14T05:10:12.284Z,55.70
2016-12-14T05:11:12.656Z,55.70
2016-12-14T05:12:12.571Z,55.80
2016-12-14T05:13:09.265Z,is
2016-12-14T05:14:13.567Z,55.80
2016-12-14T05:15:12.348Z,55.80
2016-12-14T05:16:11.421Z,is
2016-12-14T05:17:13.144Z,55.90
2016-12-14T05:18:12.399Z,56.00
2016-12-14T05:19:12.281Z,55.90
2016-12-14T05:20:13.559Z,56.20
2016-12-14T05:21:12.666Z,56.20
2016-12-14T05:22:12.470Z,56.00
2016-12-14T05:23:12.145Z,56.00
2016-12-14T05:24:12.254Z,56.10
2016-12-14T05:25:16.254Z,56.10
2016-12-14T05:26:12.903Z,56.10
2016-12-14T05:27:12.530Z,55.90
2016-12-14T05:28:12.432Z,56.00
2016-12-14T05:29:11.687Z,56.40
2016-12-14T05:30:12.832Z,56.40
2016-12-14T05:31:13.167Z,56.30
2016-12-14T05:32:12.407Z,56.90
2016-12-14T05:33:11.831Z,56.10
2016-12-14T05:34:13.501Z,56.30
2016-12-14T05:35:14.435Z,56.20
2016-12-14T05:36:13.011Z,56.00
2016-12-14T05:37:12.799Z,56.10
2016-12-14T05:38:12.609Z,55.50
2016-12-14T05:39:11.853Z,56.00
2016-12-14T05:40:13.091Z,56.30
2016-12-14T05:41:13.314Z,56.20
2016-12-14T05:42:12.498Z,56.00
2016-12-14T05:43:13.745Z,56.10
2016-12-14T05:44:13.063Z,56.10
2016-12-14T05:45:14.459Z,56.00
2016-12-14T05:46:12.190Z,55.90
2016-12-14T05:47:11.828Z,56.00
2016-12-14T05:48:09.841Z,is
2016-12-14T05:49:12.570Z,56.00
2016-12-14T05:50:13.138Z,56.00
2016-12-14T05:51:12.981Z,56.00
2016-12-14T05:52:10.018Z,is
2016-12-14T05:53:13.372Z,56.30
2016-12-14T05:54:12.590Z,56.10
2016-12-14T05:55:11.791Z,56.50
2016-12-14T05:56:12.923Z,56.40
2016-12-14T05:57:13.629Z,56.30
2016-12-14T05:58:12.801Z,56.20
2016-12-14T05:59:12.224Z,56.10
2016-12-14T06:00:13.130Z,56.20
2016-12-14T06:01:12.230Z,56.00
2016-12-14T06:02:12.296Z,56.10
2016-12-14T06:03:12.540Z,56.00
2016-12-14T06:04:12.038Z,56.00
2016-12-14T06:05:13.205Z,56.00
2016-12-14T06:06:12.434Z,56.00
2016-12-14T06:07:11.961Z,56.00
2016-12-14T06:08:13.406Z,56.00
2016-12-14T06:09:12.518Z,56.00
2016-12-14T06:10:12.101Z,56.00
2016-12-14T06:11:12.068Z,is
2016-12-14T06:12:12.341Z,56.10
2016-12-14T06:13:13.299Z,56.00
2016-12-14T06:14:12.615Z,56.00
2016-12-14T06:15:12.643Z,56.00
2016-12-14T06:16:10.833Z,is
2016-12-14T06:17:12.909Z,56.00
2016-12-14T06:18:11.084Z,is
2016-12-14T06:19:14.056Z,55.90
2016-12-14T06:20:12.395Z,55.50
2016-12-14T06:21:14.453Z,56.40
2016-12-14T06:22:11.814Z,56.30
2016-12-14T06:23:12.523Z,56.80
2016-12-14T06:24:09.523Z,is
2016-12-14T06:25:13.149Z,56.40
2016-12-14T06:26:13.512Z,56.30
2016-12-14T06:27:12.276Z,56.30
2016-12-14T06:28:13.050Z,56.30
2016-12-14T06:29:12.367Z,56.30
2016-12-14T06:30:12.038Z,56.20
2016-12-14T06:31:12.789Z,56.20
2016-12-14T06:32:10.842Z,is
2016-12-14T06:33:12.794Z,56.00
2016-12-14T06:34:12.693Z,56.00
2016-12-14T06:35:12.174Z,55.90
2016-12-14T06:36:12.541Z,55.90
2016-12-14T06:37:12.649Z,56.00
2016-12-14T06:38:12.196Z,55.90
2016-12-14T06:39:10.612Z,is
2016-12-14T06:40:13.428Z,55.90
2016-12-14T06:41:12.678Z,55.90
2016-12-14T06:42:12.674Z,55.90
2016-12-14T06:43:12.697Z,56.00
2016-12-14T06:44:12.115Z,56.20
2016-12-14T06:45:12.881Z,55.60
2016-12-14T06:46:12.587Z,55.70
2016-12-14T06:47:12.044Z,55.70
2016-12-14T06:48:12.453Z,55.90
2016-12-14T06:49:12.375Z,56.00
2016-12-14T06:50:12.325Z,56.50
2016-12-14T06:51:13.454Z,56.20
2016-12-14T06:52:13.725Z,56.20
2016-12-14T06:53:12.262Z,56.10
2016-12-14T06:54:12.298Z,56.00
2016-12-14T06:55:12.226Z,56.10
2016-12-14T06:56:13.412Z,56.10
2016-12-14T06:57:12.330Z,56.10
2016-12-14T06:58:13.017Z,56.00
2016-12-14T06:59:10.264Z,is
2016-12-14T07:00:12.282Z,56.00
2016-12-14T07:01:12.485Z,56.00
2016-12-14T07:02:13.340Z,56.00
2016-12-14T07:03:13.976Z,56.00
2016-12-14T07:04:12.645Z,55.90
2016-12-14T07:05:12.122Z,55.90
2016-12-14T07:06:10.833Z,is
2016-12-14T07:07:13.147Z,55.90
2016-12-14T07:08:13.070Z,55.90
2016-12-14T07:09:12.875Z,55.70
2016-12-14T07:10:13.796Z,55.90
2016-12-14T07:11:12.971Z,53.50
2016-12-14T07:12:12.769Z,52.50
2016-12-14T07:13:12.256Z,53.70
2016-12-14T07:14:10.639Z,is
2016-12-14T07:15:13.235Z,54.70
2016-12-14T07:16:12.909Z,54.70
2016-12-14T07:17:12.327Z,54.70
2016-12-14T07:18:12.841Z,55.00
2016-12-14T07:19:12.524Z,54.90
2016-12-14T07:20:12.276Z,55.10
2016-12-14T07:21:12.430Z,55.40
2016-12-14T07:22:12.334Z,54.80
2016-12-14T07:23:11.324Z,is
2016-12-14T07:24:14.368Z,54.80
2016-12-14T07:25:10.986Z,is
2016-12-14T07:26:14.162Z,54.80
2016-12-14T07:27:12.332Z,54.90
2016-12-14T07:28:14.138Z,54.80
2016-12-14T07:29:11.209Z,is
2016-12-14T07:30:11.329Z,is
2016-12-14T07:31:11.963Z,54.80
2016-12-14T07:32:12.944Z,54.80
2016-12-14T07:33:12.683Z,54.90
2016-12-14T07:34:12.308Z,54.80
2016-12-14T07:35:13.110Z,53.90
2016-12-14T07:36:13.867Z,42.50
2016-12-14T07:37:12.185Z,41.60
2016-12-14T07:38:13.975Z,41.10
2016-12-14T07:39:12.147Z,42.80
2016-12-14T07:40:12.909Z,44.50
2016-12-14T07:41:13.977Z,46.00
2016-12-14T07:42:12.651Z,46.50
2016-12-14T07:43:11.124Z,is
2016-12-14T07:44:13.262Z,48.40
2016-12-14T07:45:13.387Z,49.00
2016-12-14T07:46:13.065Z,50.20
2016-12-14T07:47:10.846Z,is
2016-12-14T07:48:12.199Z,49.80
2016-12-14T07:49:12.275Z,49.60
2016-12-14T07:50:10.670Z,is
2016-12-14T07:51:12.217Z,49.50
2016-12-14T07:52:12.647Z,49.20
2016-12-14T07:53:12.417Z,49.10
2016-12-14T07:54:12.048Z,49.00
2016-12-14T07:55:12.724Z,48.90
2016-12-14T07:56:14.149Z,48.70
2016-12-14T07:57:10.912Z,is
2016-12-14T07:58:12.466Z,48.90
2016-12-14T07:59:11.815Z,48.90
2016-12-14T08:00:12.898Z,48.90
2016-12-14T08:01:12.462Z,48.80
2016-12-14T08:02:12.322Z,48.90
2016-12-14T08:03:13.066Z,49.00
2016-12-14T08:04:11.074Z,is
2016-12-14T08:05:12.539Z,48.90
2016-12-14T08:06:12.125Z,49.00
2016-12-14T08:07:12.437Z,49.20
2016-12-14T08:08:13.555Z,49.20
2016-12-14T08:09:11.859Z,49.10
2016-12-14T08:10:14.595Z,49.30
2016-12-14T08:11:13.092Z,49.20
2016-12-14T08:12:13.120Z,49.50
2016-12-14T08:13:12.428Z,49.40
2016-12-14T08:14:11.904Z,49.30
2016-12-14T08:15:12.686Z,49.50
2016-12-14T08:16:12.154Z,49.50
2016-12-14T08:17:12.954Z,49.70
2016-12-14T08:18:10.158Z,is
2016-12-14T08:19:09.649Z,is
2016-12-14T08:20:14.590Z,49.80
2016-12-14T08:21:12.053Z,49.60
2016-12-14T08:22:12.418Z,49.70
2016-12-14T08:23:11.989Z,49.80
2016-12-14T08:24:12.846Z,49.80
2016-12-14T08:25:12.660Z,49.80
2016-12-14T08:26:13.002Z,49.80
2016-12-14T08:27:12.816Z,49.80
2016-12-14T08:28:13.019Z,49.90
2016-12-14T08:29:11.015Z,is
2016-12-14T08:30:12.350Z,49.90
2016-12-14T08:31:13.097Z,50.00
2016-12-14T08:32:13.710Z,49.80
2016-12-14T08:33:12.857Z,50.00
2016-12-14T08:34:12.495Z,50.00
2016-12-14T08:35:12.359Z,50.00
2016-12-14T08:36:12.455Z,50.00
2016-12-14T08:37:11.898Z,50.00
2016-12-14T08:38:13.111Z,50.20
2016-12-14T08:39:10.255Z,is
2016-12-14T08:40:12.215Z,50.20
2016-12-14T08:41:14.065Z,50.40
2016-12-14T08:42:09.586Z,is
2016-12-14T08:43:12.847Z,50.40
2016-12-14T08:44:12.318Z,50.40
2016-12-14T08:45:12.578Z,50.40
2016-12-14T08:46:12.382Z,50.40
2016-12-14T08:47:12.614Z,50.30
2016-12-14T08:48:13.574Z,50.50
2016-12-14T08:49:12.367Z,50.40
2016-12-14T08:50:11.864Z,50.50
2016-12-14T08:51:12.119Z,50.40
2016-12-14T08:52:12.604Z,51.00
2016-12-14T08:53:11.927Z,50.50
2016-12-14T08:54:12.338Z,50.50
2016-12-14T08:55:12.885Z,50.50
2016-12-14T08:56:13.294Z,50.60
2016-12-14T08:57:13.054Z,50.70
2016-12-14T08:58:12.418Z,50.50
2016-12-14T08:59:12.608Z,50.80
2016-12-14T09:00:12.166Z,50.60
2016-12-14T09:01:14.063Z,50.70
2016-12-14T09:02:12.768Z,50.80
2016-12-14T09:03:11.971Z,50.70
2016-12-14T09:04:10.975Z,is
2016-12-14T09:05:12.322Z,50.90
2016-12-14T09:06:12.617Z,50.90
2016-12-14T09:07:11.967Z,51.00
2016-12-14T09:08:12.770Z,51.00
2016-12-14T09:09:12.466Z,51.00
2016-12-14T09:10:12.693Z,51.10
2016-12-14T09:11:13.027Z,51.00
2016-12-14T09:12:14.255Z,51.10
2016-12-14T09:13:12.846Z,51.10
2016-12-14T09:14:12.226Z,51.10
2016-12-14T09:15:12.638Z,51.10
2016-12-14T09:16:13.891Z,51.20
2016-12-14T09:17:12.927Z,51.20
2016-12-14T09:18:12.709Z,51.20
2016-12-14T09:19:12.478Z,51.30
2016-12-14T09:20:12.267Z,51.30
2016-12-14T09:21:10.225Z,is
2016-12-14T09:22:12.641Z,51.40
2016-12-14T09:23:13.662Z,51.40
2016-12-14T09:24:12.655Z,51.40
2016-12-14T09:25:13.587Z,51.50
2016-12-14T09:26:13.885Z,51.50
2016-12-14T09:27:12.314Z,51.40
2016-12-14T09:28:12.529Z,51.50
2016-12-14T09:29:11.919Z,51.50
2016-12-14T09:30:12.717Z,51.50
2016-12-14T09:31:10.806Z,is
2016-12-14T09:32:12.476Z,52.00
2016-12-14T09:33:13.506Z,51.50
2016-12-14T09:34:11.884Z,51.50
2016-12-14T09:35:12.152Z,51.50
2016-12-14T09:36:13.156Z,51.50
2016-12-14T09:37:13.016Z,51.60
2016-12-14T09:38:13.176Z,51.60
2016-12-14T09:39:12.416Z,51.60
2016-12-14T09:40:12.362Z,51.70
2016-12-14T09:41:13.404Z,51.60
2016-12-14T09:42:12.495Z,51.60
2016-12-14T09:43:13.449Z,51.60
2016-12-14T09:44:11.761Z,51.70
2016-12-14T09:45:13.252Z,51.70
2016-12-14T09:46:12.297Z,51.70
2016-12-14T09:47:12.462Z,51.70
2016-12-14T09:48:12.378Z,51.70
2016-12-14T09:49:11.344Z,is
2016-12-14T09:50:11.997Z,51.70
2016-12-14T09:51:12.966Z,51.80
2016-12-14T09:52:12.317Z,51.70
2016-12-14T09:53:13.009Z,51.70
2016-12-14T09:54:13.196Z,51.80
2016-12-14T09:55:13.017Z,51.70
2016-12-14T09:56:13.677Z,51.80
2016-12-14T09:57:12.137Z,51.70
2016-12-14T09:58:12.594Z,51.80
2016-12-14T09:59:12.133Z,51.90
2016-12-14T10:00:18.694Z,51.90
2016-12-14T10:01:12.137Z,51.80
2016-12-14T10:02:12.494Z,51.80
2016-12-14T10:03:12.031Z,51.80
2016-12-14T10:04:18.710Z,51.90
2016-12-14T10:05:12.041Z,51.90
2016-12-14T10:06:12.787Z,52.00
2016-12-14T10:07:12.682Z,52.00
2016-12-14T10:08:12.184Z,51.80
2016-12-14T10:09:13.093Z,52.00
2016-12-14T10:10:12.692Z,51.90
2016-12-14T10:11:14.018Z,52.00
2016-12-14T10:12:12.684Z,52.00
2016-12-14T10:13:12.210Z,51.90
2016-12-14T10:14:11.206Z,is
2016-12-14T10:15:12.608Z,52.00
2016-12-14T10:16:11.866Z,52.00
2016-12-14T10:17:12.828Z,52.00
2016-12-14T10:18:09.518Z,is
2016-12-14T10:19:12.553Z,52.00
2016-12-14T10:20:11.940Z,52.00
2016-12-14T10:21:10.197Z,is
2016-12-14T10:22:12.187Z,52.00
2016-12-14T10:23:11.189Z,is
2016-12-14T10:24:13.001Z,52.00
2016-12-14T10:25:12.475Z,52.00
2016-12-14T10:26:12.773Z,51.90
2016-12-14T10:27:15.836Z,52.00
2016-12-14T10:28:13.603Z,52.10
2016-12-14T10:29:12.817Z,52.10
2016-12-14T10:30:12.205Z,52.00
2016-12-14T10:31:13.033Z,52.00
2016-12-14T10:32:12.946Z,52.00
2016-12-14T10:33:11.182Z,is
2016-12-14T10:34:09.794Z,is
2016-12-14T10:35:13.513Z,52.10
2016-12-14T10:36:12.337Z,52.10
2016-12-14T10:37:12.952Z,52.00
2016-12-14T10:38:12.573Z,52.00
2016-12-14T10:39:11.879Z,52.10
2016-12-14T10:40:12.518Z,52.10
2016-12-14T10:41:13.676Z,52.10
2016-12-14T10:42:14.758Z,52.20
2016-12-14T10:43:12.554Z,52.10
2016-12-14T10:44:13.079Z,52.20
2016-12-14T10:45:12.490Z,52.30
2016-12-14T10:46:12.572Z,52.20
2016-12-14T10:47:11.863Z,52.10
2016-12-14T10:48:12.138Z,52.20
2016-12-14T10:49:13.142Z,52.20
2016-12-14T10:50:12.403Z,52.20
2016-12-14T10:51:11.885Z,52.10
2016-12-14T10:52:13.011Z,52.30
2016-12-14T10:53:15.975Z,52.20
2016-12-14T10:54:12.830Z,52.20
2016-12-14T10:55:12.215Z,52.20
2016-12-14T10:56:12.931Z,52.30
2016-12-14T10:57:12.318Z,52.10
2016-12-14T10:58:13.051Z,52.10
2016-12-14T10:59:12.480Z,52.10
2016-12-14T11:00:09.855Z,is
2016-12-14T11:01:12.195Z,52.10
2016-12-14T11:02:12.480Z,52.10
2016-12-14T11:03:12.348Z,52.20
2016-12-14T11:04:09.980Z,is
2016-12-14T11:05:12.767Z,52.20
2016-12-14T11:06:12.682Z,52.30
2016-12-14T11:07:12.720Z,52.20
2016-12-14T11:08:12.853Z,52.30
2016-12-14T11:09:14.740Z,52.30
2016-12-14T11:10:12.289Z,52.30
2016-12-14T11:11:14.271Z,52.30
2016-12-14T11:12:13.269Z,52.40
2016-12-14T11:13:09.809Z,is
2016-12-14T11:14:12.797Z,52.20
2016-12-14T11:15:10.851Z,is
2016-12-14T11:16:12.387Z,52.30
2016-12-14T11:17:13.439Z,52.30
2016-12-14T11:18:12.399Z,52.30
2016-12-14T11:19:11.897Z,52.30
2016-12-14T11:20:12.261Z,52.20
2016-12-14T11:21:12.484Z,52.30
2016-12-14T11:22:12.333Z,52.40
2016-12-14T11:23:12.613Z,51.50
2016-12-14T11:24:12.753Z,52.40
2016-12-14T11:25:12.311Z,52.40
2016-12-14T11:26:14.386Z,52.50
2016-12-14T11:27:12.214Z,52.40
2016-12-14T11:28:13.052Z,52.50
2016-12-14T11:29:12.367Z,52.30
2016-12-14T11:30:11.783Z,52.40
2016-12-14T11:31:12.977Z,52.50
2016-12-14T11:32:12.120Z,52.40
2016-12-14T11:33:12.719Z,52.40
2016-12-14T11:34:12.216Z,52.40
2016-12-14T11:35:13.914Z,52.50
2016-12-14T11:36:12.491Z,52.40
2016-12-14T11:37:14.483Z,52.50
2016-12-14T11:38:12.137Z,52.40
2016-12-14T11:39:09.587Z,is
2016-12-14T11:40:12.810Z,52.40
2016-12-14T11:41:13.318Z,52.50
2016-12-14T11:42:13.337Z,52.50
2016-12-14T11:43:09.792Z,is
2016-12-14T11:44:13.893Z,52.40
2016-12-14T11:45:12.278Z,52.40
2016-12-14T11:46:14.257Z,52.50
2016-12-14T11:47:11.356Z,is
2016-12-14T11:48:13.306Z,52.50
2016-12-14T11:49:13.088Z,52.50
2016-12-14T11:50:12.989Z,52.50
2016-12-14T11:51:12.306Z,52.50
2016-12-14T11:52:12.568Z,52.50
2016-12-14T11:53:12.440Z,52.50
2016-12-14T11:54:11.807Z,52.50
2016-12-14T11:55:12.745Z,52.50
2016-12-14T11:56:14.026Z,52.50
2016-12-14T11:57:12.927Z,52.50
2016-12-14T11:58:12.444Z,52.50
2016-12-14T11:59:12.285Z,52.50
2016-12-14T12:00:12.928Z,52.50
2016-12-14T12:01:12.286Z,52.50
2016-12-14T12:02:13.274Z,52.50
2016-12-14T12:03:10.926Z,is
2016-12-14T12:04:12.900Z,52.50
2016-12-14T12:05:13.136Z,52.50
2016-12-14T12:06:12.738Z,52.50
2016-12-14T12:07:12.739Z,52.50
2016-12-14T12:08:12.159Z,52.50
2016-12-14T12:09:13.211Z,52.60
2016-12-14T12:10:09.840Z,is
2016-12-14T12:11:10.008Z,is
2016-12-14T12:12:11.868Z,52.40
2016-12-14T12:13:09.626Z,is
2016-12-14T12:14:12.184Z,52.50
2016-12-14T12:15:13.994Z,52.50
2016-12-14T12:16:12.197Z,52.50
2016-12-14T12:17:12.999Z,52.50
2016-12-14T12:18:13.778Z,52.50
2016-12-14T12:19:12.340Z,52.50
2016-12-14T12:20:13.176Z,52.50
2016-12-14T12:21:12.950Z,52.50
2016-12-14T12:22:12.788Z,52.60
2016-12-14T12:23:12.716Z,52.50
2016-12-14T12:24:12.566Z,52.50
2016-12-14T12:25:17.853Z,52.50
2016-12-14T12:26:13.068Z,52.60
2016-12-14T12:27:12.522Z,52.50
2016-12-14T12:28:13.761Z,52.60
2016-12-14T12:29:12.259Z,52.50
2016-12-14T12:30:11.037Z,is
2016-12-14T12:31:11.944Z,52.50
2016-12-14T12:32:12.854Z,52.50
2016-12-14T12:33:12.260Z,52.50
2016-12-14T12:34:14.168Z,52.60
2016-12-14T12:35:13.303Z,52.50
2016-12-14T12:36:12.959Z,52.50
2016-12-14T12:37:10.155Z,is
2016-12-14T12:38:12.431Z,52.40
2016-12-14T12:39:12.715Z,52.60
2016-12-14T12:40:12.481Z,52.60
2016-12-14T12:41:12.971Z,52.60
2016-12-14T12:42:12.794Z,52.60
2016-12-14T12:43:12.689Z,52.60
2016-12-14T12:44:12.808Z,52.60
2016-12-14T12:45:12.248Z,52.60
2016-12-14T12:46:12.932Z,52.70
2016-12-14T12:47:12.191Z,52.60
2016-12-14T12:48:12.820Z,52.30
2016-12-14T12:49:12.216Z,52.50
2016-12-14T12:50:09.640Z,is
2016-12-14T12:51:12.769Z,52.50
2016-12-14T12:52:12.246Z,52.50
2016-12-14T12:53:12.479Z,52.50
2016-12-14T12:54:12.069Z,52.50
2016-12-14T12:55:12.516Z,52.50
2016-12-14T12:56:12.808Z,52.50
2016-12-14T12:57:12.122Z,52.50
2016-12-14T12:58:12.970Z,52.60
2016-12-14T12:59:12.309Z,52.50
2016-12-14T13:00:15.299Z,52.60
2016-12-14T13:01:12.810Z,52.50